sensor_id;sensor_type;location;lat;lon;timestamp;P1;durP1;ratioP1;P2;durP2;ratioP2
18176;SDS011;9213;50.858;3.964;2023-01-10T00:01:52;12.03;;;3.13;;
18176;SDS011;9213;50.858;3.964;2023-01-10T00:04:20;14.90;;;3.10;;
18176;SDS011;9213;50.858;3.964;2023-01-10T00:06:48;10.27;;;3.00;;
18176;SDS011;9213;50.858;3.964;2023-01-10T00:09:15;11.83;;;2.97;;
18176;SDS011;9213;50.858;3.964;2023-01-10T00:11:42;11.30;;;3.17;;
18176;SDS011;9213;50.858;3.964;2023-01-10T00:14:27;11.90;;;4.00;;
18176;SDS011;9213;50.858;3.964;2023-01-10T00:16:55;13.90;;;2.90;;
18176;SDS011;9213;50.858;3.964;2023-01-10T00:19:22;12.73;;;2.93;;
18176;SDS011;9213;50.858;3.964;2023-01-10T00:21:49;16.67;;;3.13;;
18176;SDS011;9213;50.858;3.964;2023-01-10T00:24:19;9.80;;;3.10;;
18176;SDS011;9213;50.858;3.964;2023-01-10T00:26:48;13.53;;;3.03;;
18176;SDS011;9213;50.858;3.964;2023-01-10T00:29:16;21.30;;;3.27;;
18176;SDS011;9213;50.858;3.964;2023-01-10T00:31:43;13.33;;;3.60;;
18176;SDS011;9213;50.858;3.964;2023-01-10T00:34:12;13.80;;;3.27;;
18176;SDS011;9213;50.858;3.964;2023-01-10T00:36:39;14.47;;;3.90;;
18176;SDS011;9213;50.858;3.964;2023-01-10T00:39:07;8.40;;;2.60;;
18176;SDS011;9213;50.858;3.964;2023-01-10T00:41:38;13.00;;;3.70;;
18176;SDS011;9213;50.858;3.964;2023-01-10T00:44:22;14.83;;;3.40;;
18176;SDS011;9213;50.858;3.964;2023-01-10T00:46:50;15.37;;;3.07;;
18176;SDS011;9213;50.858;3.964;2023-01-10T00:49:18;15.73;;;3.10;;
18176;SDS011;9213;50.858;3.964;2023-01-10T00:51:45;17.70;;;2.80;;
18176;SDS011;9213;50.858;3.964;2023-01-10T00:54:13;14.97;;;2.87;;
18176;SDS011;9213;50.858;3.964;2023-01-10T00:56:40;13.87;;;2.87;;
18176;SDS011;9213;50.858;3.964;2023-01-10T00:59:07;14.77;;;3.10;;
18176;SDS011;9213;50.858;3.964;2023-01-10T01:01:34;12.70;;;2.90;;
18176;SDS011;9213;50.858;3.964;2023-01-10T01:04:01;17.07;;;3.17;;
18176;SDS011;9213;50.858;3.964;2023-01-10T01:06:29;11.63;;;4.00;;
18176;SDS011;9213;50.858;3.964;2023-01-10T01:08:56;19.90;;;3.80;;
18176;SDS011;9213;50.858;3.964;2023-01-10T01:11:23;11.40;;;3.40;;
18176;SDS011;9213;50.858;3.964;2023-01-10T01:13:51;16.33;;;3.00;;
18176;SDS011;9213;50.858;3.964;2023-01-10T01:16:18;14.20;;;3.47;;
18176;SDS011;9213;50.858;3.964;2023-01-10T01:18:44;18.37;;;4.63;;
18176;SDS011;9213;50.858;3.964;2023-01-10T01:21:11;17.77;;;3.30;;
18176;SDS011;9213;50.858;3.964;2023-01-10T01:23:40;11.07;;;2.80;;
18176;SDS011;9213;50.858;3.964;2023-01-10T01:26:07;10.27;;;3.00;;
18176;SDS011;9213;50.858;3.964;2023-01-10T01:28:35;15.30;;;3.30;;
18176;SDS011;9213;50.858;3.964;2023-01-10T01:31:05;13.83;;;3.40;;
18176;SDS011;9213;50.858;3.964;2023-01-10T01:33:33;21.43;;;3.40;;
18176;SDS011;9213;50.858;3.964;2023-01-10T01:36:00;15.43;;;3.07;;
18176;SDS011;9213;50.858;3.964;2023-01-10T01:38:27;19.83;;;3.60;;
18176;SDS011;9213;50.858;3.964;2023-01-10T01:40:55;12.93;;;3.57;;
18176;SDS011;9213;50.858;3.964;2023-01-10T01:43:23;13.70;;;3.73;;
18176;SDS011;9213;50.858;3.964;2023-01-10T01:45:52;15.33;;;3.03;;
18176;SDS011;9213;50.858;3.964;2023-01-10T01:48:31;17.87;;;2.77;;
18176;SDS011;9213;50.858;3.964;2023-01-10T01:51:01;14.53;;;3.73;;
18176;SDS011;9213;50.858;3.964;2023-01-10T01:53:36;21.60;;;4.17;;
18176;SDS011;9213;50.858;3.964;2023-01-10T01:56:10;18.37;;;3.10;;
18176;SDS011;9213;50.858;3.964;2023-01-10T01:58:47;19.63;;;3.03;;
18176;SDS011;9213;50.858;3.964;2023-01-10T02:01:17;14.77;;;3.37;;
18176;SDS011;9213;50.858;3.964;2023-01-10T02:03:47;17.03;;;3.30;;
18176;SDS011;9213;50.858;3.964;2023-01-10T02:06:20;22.00;;;4.23;;
18176;SDS011;9213;50.858;3.964;2023-01-10T02:08:51;17.70;;;3.67;;
18176;SDS011;9213;50.858;3.964;2023-01-10T02:11:25;15.07;;;3.17;;
18176;SDS011;9213;50.858;3.964;2023-01-10T02:13:54;23.60;;;4.33;;
18176;SDS011;9213;50.858;3.964;2023-01-10T02:16:23;23.10;;;3.57;;
18176;SDS011;9213;50.858;3.964;2023-01-10T02:18:49;15.73;;;2.83;;
18176;SDS011;9213;50.858;3.964;2023-01-10T02:21:18;20.80;;;3.27;;
18176;SDS011;9213;50.858;3.964;2023-01-10T02:27:18;19.63;;;3.03;;
18176;SDS011;9213;50.858;3.964;2023-01-10T02:29:56;12.03;;;2.80;;
18176;SDS011;9213;50.858;3.964;2023-01-10T02:32:52;18.47;;;3.37;;
18176;SDS011;9213;50.858;3.964;2023-01-10T02:35:33;23.80;;;4.30;;
18176;SDS011;9213;50.858;3.964;2023-01-10T02:38:17;16.67;;;3.10;;
18176;SDS011;9213;50.858;3.964;2023-01-10T02:40:51;21.93;;;3.60;;
18176;SDS011;9213;50.858;3.964;2023-01-10T02:43:28;19.47;;;3.80;;
18176;SDS011;9213;50.858;3.964;2023-01-10T02:45:59;18.27;;;3.23;;
18176;SDS011;9213;50.858;3.964;2023-01-10T02:48:32;19.83;;;3.50;;
18176;SDS011;9213;50.858;3.964;2023-01-10T02:51:00;21.03;;;3.63;;
18176;SDS011;9213;50.858;3.964;2023-01-10T02:53:31;15.27;;;3.43;;
18176;SDS011;9213;50.858;3.964;2023-01-10T03:01:51;17.63;;;3.80;;
18176;SDS011;9213;50.858;3.964;2023-01-10T03:04:24;22.63;;;3.87;;
18176;SDS011;9213;50.858;3.964;2023-01-10T03:06:59;27.77;;;4.27;;
18176;SDS011;9213;50.858;3.964;2023-01-10T03:09:34;21.13;;;4.40;;
18176;SDS011;9213;50.858;3.964;2023-01-10T03:12:07;21.23;;;3.30;;
18176;SDS011;9213;50.858;3.964;2023-01-10T03:14:37;18.20;;;3.30;;
18176;SDS011;9213;50.858;3.964;2023-01-10T03:17:06;22.03;;;3.70;;
18176;SDS011;9213;50.858;3.964;2023-01-10T03:19:39;21.77;;;3.23;;
18176;SDS011;9213;50.858;3.964;2023-01-10T03:22:11;18.60;;;3.77;;
18176;SDS011;9213;50.858;3.964;2023-01-10T03:24:39;14.93;;;3.30;;
18176;SDS011;9213;50.858;3.964;2023-01-10T03:27:10;27.57;;;3.93;;
18176;SDS011;9213;50.858;3.964;2023-01-10T03:29:45;26.63;;;4.10;;
18176;SDS011;9213;50.858;3.964;2023-01-10T03:32:18;17.07;;;3.27;;
18176;SDS011;9213;50.858;3.964;2023-01-10T03:34:50;16.20;;;3.50;;
18176;SDS011;9213;50.858;3.964;2023-01-10T03:37:19;28.33;;;4.20;;
18176;SDS011;9213;50.858;3.964;2023-01-10T03:39:57;27.17;;;4.17;;
18176;SDS011;9213;50.858;3.964;2023-01-10T03:42:32;21.87;;;3.73;;
18176;SDS011;9213;50.858;3.964;2023-01-10T03:45:23;22.17;;;3.70;;
18176;SDS011;9213;50.858;3.964;2023-01-10T03:47:55;25.67;;;3.73;;
18176;SDS011;9213;50.858;3.964;2023-01-10T03:50:27;22.70;;;3.33;;
18176;SDS011;9213;50.858;3.964;2023-01-10T03:52:56;20.70;;;3.80;;
18176;SDS011;9213;50.858;3.964;2023-01-10T03:55:25;15.63;;;3.80;;
18176;SDS011;9213;50.858;3.964;2023-01-10T03:57:53;22.97;;;3.63;;
18176;SDS011;9213;50.858;3.964;2023-01-10T04:00:21;23.10;;;4.00;;
18176;SDS011;9213;50.858;3.964;2023-01-10T04:02:50;17.63;;;4.00;;
18176;SDS011;9213;50.858;3.964;2023-01-10T04:05:17;32.27;;;7.20;;
18176;SDS011;9213;50.858;3.964;2023-01-10T04:07:45;24.43;;;4.53;;
18176;SDS011;9213;50.858;3.964;2023-01-10T04:10:13;26.33;;;4.47;;
18176;SDS011;9213;50.858;3.964;2023-01-10T04:12:40;21.77;;;3.90;;
18176;SDS011;9213;50.858;3.964;2023-01-10T04:15:07;24.30;;;4.17;;
18176;SDS011;9213;50.858;3.964;2023-01-10T04:17:35;18.80;;;4.23;;
18176;SDS011;9213;50.858;3.964;2023-01-10T04:20:02;34.33;;;4.77;;
18176;SDS011;9213;50.858;3.964;2023-01-10T04:22:29;26.30;;;4.47;;
18176;SDS011;9213;50.858;3.964;2023-01-10T04:24:57;18.70;;;4.10;;
18176;SDS011;9213;50.858;3.964;2023-01-10T04:27:24;21.73;;;4.40;;
18176;SDS011;9213;50.858;3.964;2023-01-10T04:29:51;19.27;;;4.27;;
18176;SDS011;9213;50.858;3.964;2023-01-10T04:32:18;24.73;;;4.43;;
18176;SDS011;9213;50.858;3.964;2023-01-10T04:34:45;27.43;;;3.93;;
18176;SDS011;9213;50.858;3.964;2023-01-10T04:37:12;26.20;;;5.03;;
18176;SDS011;9213;50.858;3.964;2023-01-10T04:39:39;27.87;;;4.20;;
18176;SDS011;9213;50.858;3.964;2023-01-10T04:42:07;36.87;;;5.77;;
18176;SDS011;9213;50.858;3.964;2023-01-10T04:44:34;20.53;;;4.37;;
18176;SDS011;9213;50.858;3.964;2023-01-10T04:47:01;20.30;;;4.27;;
18176;SDS011;9213;50.858;3.964;2023-01-10T04:49:28;18.13;;;4.13;;
18176;SDS011;9213;50.858;3.964;2023-01-10T04:51:55;25.23;;;4.20;;
18176;SDS011;9213;50.858;3.964;2023-01-10T04:54:22;26.90;;;4.50;;
18176;SDS011;9213;50.858;3.964;2023-01-10T04:56:49;23.67;;;4.53;;
18176;SDS011;9213;50.858;3.964;2023-01-10T04:59:17;22.40;;;4.67;;
18176;SDS011;9213;50.858;3.964;2023-01-10T05:01:44;33.13;;;4.27;;
18176;SDS011;9213;50.858;3.964;2023-01-10T05:04:11;16.17;;;3.60;;
18176;SDS011;9213;50.858;3.964;2023-01-10T05:06:39;25.53;;;4.70;;
18176;SDS011;9213;50.858;3.964;2023-01-10T05:09:06;22.80;;;4.07;;
18176;SDS011;9213;50.858;3.964;2023-01-10T05:11:33;29.87;;;4.27;;
18176;SDS011;9213;50.858;3.964;2023-01-10T05:14:00;27.57;;;4.30;;
18176;SDS011;9213;50.858;3.964;2023-01-10T05:16:28;23.40;;;4.20;;
18176;SDS011;9213;50.858;3.964;2023-01-10T05:18:55;16.13;;;4.07;;
18176;SDS011;9213;50.858;3.964;2023-01-10T05:21:22;24.47;;;4.60;;
18176;SDS011;9213;50.858;3.964;2023-01-10T05:23:49;18.63;;;4.00;;
18176;SDS011;9213;50.858;3.964;2023-01-10T05:26:17;21.10;;;4.17;;
18176;SDS011;9213;50.858;3.964;2023-01-10T05:28:46;25.10;;;4.03;;
18176;SDS011;9213;50.858;3.964;2023-01-10T05:31:14;29.00;;;5.13;;
18176;SDS011;9213;50.858;3.964;2023-01-10T05:33:44;22.30;;;4.43;;
18176;SDS011;9213;50.858;3.964;2023-01-10T05:36:12;27.57;;;5.00;;
18176;SDS011;9213;50.858;3.964;2023-01-10T05:38:39;21.57;;;4.73;;
18176;SDS011;9213;50.858;3.964;2023-01-10T05:41:06;23.33;;;4.50;;
18176;SDS011;9213;50.858;3.964;2023-01-10T05:43:33;28.00;;;4.97;;
18176;SDS011;9213;50.858;3.964;2023-01-10T05:46:00;21.27;;;4.27;;
18176;SDS011;9213;50.858;3.964;2023-01-10T05:48:27;26.93;;;4.00;;
18176;SDS011;9213;50.858;3.964;2023-01-10T05:50:55;23.80;;;4.63;;
18176;SDS011;9213;50.858;3.964;2023-01-10T05:53:22;19.87;;;3.93;;
18176;SDS011;9213;50.858;3.964;2023-01-10T05:55:53;22.50;;;3.83;;
18176;SDS011;9213;50.858;3.964;2023-01-10T05:58:21;23.60;;;4.47;;
18176;SDS011;9213;50.858;3.964;2023-01-10T06:00:49;26.43;;;4.40;;
18176;SDS011;9213;50.858;3.964;2023-01-10T06:03:16;23.40;;;4.73;;
18176;SDS011;9213;50.858;3.964;2023-01-10T06:05:43;26.20;;;4.90;;
18176;SDS011;9213;50.858;3.964;2023-01-10T06:08:12;29.27;;;4.23;;
18176;SDS011;9213;50.858;3.964;2023-01-10T06:10:39;27.07;;;4.70;;
18176;SDS011;9213;50.858;3.964;2023-01-10T06:13:06;29.07;;;4.40;;
18176;SDS011;9213;50.858;3.964;2023-01-10T06:15:34;19.20;;;4.33;;
18176;SDS011;9213;50.858;3.964;2023-01-10T06:18:02;30.67;;;4.00;;
18176;SDS011;9213;50.858;3.964;2023-01-10T06:20:29;26.10;;;4.60;;
18176;SDS011;9213;50.858;3.964;2023-01-10T06:22:56;22.03;;;4.00;;
18176;SDS011;9213;50.858;3.964;2023-01-10T06:25:27;24.37;;;4.30;;
18176;SDS011;9213;50.858;3.964;2023-01-10T06:27:54;19.83;;;3.50;;
18176;SDS011;9213;50.858;3.964;2023-01-10T06:30:22;26.20;;;4.47;;
18176;SDS011;9213;50.858;3.964;2023-01-10T06:32:48;23.00;;;4.07;;
18176;SDS011;9213;50.858;3.964;2023-01-10T06:35:15;18.77;;;4.00;;
18176;SDS011;9213;50.858;3.964;2023-01-10T06:37:43;22.50;;;4.37;;
18176;SDS011;9213;50.858;3.964;2023-01-10T06:40:10;29.10;;;4.70;;
18176;SDS011;9213;50.858;3.964;2023-01-10T06:42:40;31.10;;;4.80;;
18176;SDS011;9213;50.858;3.964;2023-01-10T06:45:07;22.00;;;4.73;;
18176;SDS011;9213;50.858;3.964;2023-01-10T06:47:34;22.40;;;5.43;;
18176;SDS011;9213;50.858;3.964;2023-01-10T06:50:02;29.77;;;4.83;;
18176;SDS011;9213;50.858;3.964;2023-01-10T06:52:30;22.30;;;3.93;;
18176;SDS011;9213;50.858;3.964;2023-01-10T06:54:57;19.57;;;3.77;;
18176;SDS011;9213;50.858;3.964;2023-01-10T06:57:24;16.70;;;3.67;;
18176;SDS011;9213;50.858;3.964;2023-01-10T06:59:53;22.27;;;4.40;;
18176;SDS011;9213;50.858;3.964;2023-01-10T07:02:20;26.07;;;4.70;;
18176;SDS011;9213;50.858;3.964;2023-01-10T07:04:47;19.03;;;4.87;;
18176;SDS011;9213;50.858;3.964;2023-01-10T07:07:14;24.17;;;4.63;;
18176;SDS011;9213;50.858;3.964;2023-01-10T07:09:41;22.43;;;3.87;;
18176;SDS011;9213;50.858;3.964;2023-01-10T07:12:08;22.70;;;4.10;;
18176;SDS011;9213;50.858;3.964;2023-01-10T07:14:35;17.27;;;4.33;;
18176;SDS011;9213;50.858;3.964;2023-01-10T07:17:03;22.07;;;4.80;;
18176;SDS011;9213;50.858;3.964;2023-01-10T07:19:30;28.93;;;5.17;;
18176;SDS011;9213;50.858;3.964;2023-01-10T07:21:57;18.50;;;4.83;;
18176;SDS011;9213;50.858;3.964;2023-01-10T07:24:24;29.30;;;4.07;;
18176;SDS011;9213;50.858;3.964;2023-01-10T07:26:53;22.63;;;4.20;;
18176;SDS011;9213;50.858;3.964;2023-01-10T07:29:20;24.40;;;4.27;;
18176;SDS011;9213;50.858;3.964;2023-01-10T07:31:47;12.77;;;3.60;;
18176;SDS011;9213;50.858;3.964;2023-01-10T07:34:15;20.13;;;3.93;;
18176;SDS011;9213;50.858;3.964;2023-01-10T07:36:42;21.27;;;3.93;;
18176;SDS011;9213;50.858;3.964;2023-01-10T07:39:09;22.23;;;4.53;;
18176;SDS011;9213;50.858;3.964;2023-01-10T07:41:36;19.97;;;4.20;;
18176;SDS011;9213;50.858;3.964;2023-01-10T07:44:03;15.77;;;4.03;;
18176;SDS011;9213;50.858;3.964;2023-01-10T07:46:30;21.93;;;4.97;;
18176;SDS011;9213;50.858;3.964;2023-01-10T07:48:57;21.93;;;4.40;;
18176;SDS011;9213;50.858;3.964;2023-01-10T07:51:25;20.10;;;4.53;;
18176;SDS011;9213;50.858;3.964;2023-01-10T07:53:52;23.03;;;4.70;;
18176;SDS011;9213;50.858;3.964;2023-01-10T07:56:19;20.53;;;4.17;;
18176;SDS011;9213;50.858;3.964;2023-01-10T07:58:46;22.47;;;4.13;;
18176;SDS011;9213;50.858;3.964;2023-01-10T08:01:13;28.97;;;4.60;;
18176;SDS011;9213;50.858;3.964;2023-01-10T08:03:40;24.27;;;4.10;;
18176;SDS011;9213;50.858;3.964;2023-01-10T08:06:08;19.80;;;4.07;;
18176;SDS011;9213;50.858;3.964;2023-01-10T08:08:36;24.67;;;4.23;;
18176;SDS011;9213;50.858;3.964;2023-01-10T08:11:04;26.20;;;4.20;;
18176;SDS011;9213;50.858;3.964;2023-01-10T08:13:31;22.73;;;4.30;;
18176;SDS011;9213;50.858;3.964;2023-01-10T08:15:58;22.53;;;4.40;;
18176;SDS011;9213;50.858;3.964;2023-01-10T08:18:29;25.50;;;5.43;;
18176;SDS011;9213;50.858;3.964;2023-01-10T08:20:55;18.10;;;3.63;;
18176;SDS011;9213;50.858;3.964;2023-01-10T08:23:23;19.30;;;4.60;;
18176;SDS011;9213;50.858;3.964;2023-01-10T08:25:52;21.83;;;4.70;;
18176;SDS011;9213;50.858;3.964;2023-01-10T08:28:19;24.47;;;4.17;;
18176;SDS011;9213;50.858;3.964;2023-01-10T08:30:46;20.90;;;4.40;;
18176;SDS011;9213;50.858;3.964;2023-01-10T08:33:13;19.20;;;4.00;;
18176;SDS011;9213;50.858;3.964;2023-01-10T08:35:40;23.10;;;4.33;;
18176;SDS011;9213;50.858;3.964;2023-01-10T08:38:08;15.53;;;4.23;;
18176;SDS011;9213;50.858;3.964;2023-01-10T08:40:36;16.53;;;4.00;;
18176;SDS011;9213;50.858;3.964;2023-01-10T08:43:04;25.77;;;4.30;;
18176;SDS011;9213;50.858;3.964;2023-01-10T08:45:32;20.53;;;3.97;;
18176;SDS011;9213;50.858;3.964;2023-01-10T08:48:00;26.23;;;4.27;;
18176;SDS011;9213;50.858;3.964;2023-01-10T08:50:27;15.77;;;3.83;;
18176;SDS011;9213;50.858;3.964;2023-01-10T08:52:56;15.97;;;3.97;;
18176;SDS011;9213;50.858;3.964;2023-01-10T08:55:23;17.40;;;3.70;;
18176;SDS011;9213;50.858;3.964;2023-01-10T08:57:51;26.10;;;4.23;;
18176;SDS011;9213;50.858;3.964;2023-01-10T09:00:20;16.90;;;4.40;;
18176;SDS011;9213;50.858;3.964;2023-01-10T09:02:47;22.00;;;4.10;;
18176;SDS011;9213;50.858;3.964;2023-01-10T09:05:14;24.33;;;4.23;;
18176;SDS011;9213;50.858;3.964;2023-01-10T09:07:41;21.03;;;5.00;;
18176;SDS011;9213;50.858;3.964;2023-01-10T09:10:09;25.43;;;3.97;;
18176;SDS011;9213;50.858;3.964;2023-01-10T09:12:36;18.53;;;3.47;;
18176;SDS011;9213;50.858;3.964;2023-01-10T09:15:26;18.77;;;4.00;;
18176;SDS011;9213;50.858;3.964;2023-01-10T09:17:54;25.13;;;3.77;;
18176;SDS011;9213;50.858;3.964;2023-01-10T09:20:21;20.23;;;3.90;;
18176;SDS011;9213;50.858;3.964;2023-01-10T09:22:49;21.83;;;4.53;;
18176;SDS011;9213;50.858;3.964;2023-01-10T09:25:16;27.77;;;3.70;;
18176;SDS011;9213;50.858;3.964;2023-01-10T09:27:43;18.57;;;4.50;;
18176;SDS011;9213;50.858;3.964;2023-01-10T09:30:10;26.07;;;4.23;;
18176;SDS011;9213;50.858;3.964;2023-01-10T09:32:40;16.67;;;3.50;;
18176;SDS011;9213;50.858;3.964;2023-01-10T09:35:07;23.57;;;4.20;;
18176;SDS011;9213;50.858;3.964;2023-01-10T09:37:34;16.73;;;3.67;;
18176;SDS011;9213;50.858;3.964;2023-01-10T09:40:02;18.67;;;4.83;;
18176;SDS011;9213;50.858;3.964;2023-01-10T09:42:35;16.80;;;3.93;;
18176;SDS011;9213;50.858;3.964;2023-01-10T09:45:11;17.47;;;3.20;;
18176;SDS011;9213;50.858;3.964;2023-01-10T09:47:43;15.87;;;3.90;;
18176;SDS011;9213;50.858;3.964;2023-01-10T09:50:17;21.43;;;4.00;;
18176;SDS011;9213;50.858;3.964;2023-01-10T09:52:49;23.80;;;4.27;;
18176;SDS011;9213;50.858;3.964;2023-01-10T09:55:22;23.10;;;4.03;;
18176;SDS011;9213;50.858;3.964;2023-01-10T09:57:53;20.27;;;4.33;;
18176;SDS011;9213;50.858;3.964;2023-01-10T10:00:23;24.87;;;4.40;;
18176;SDS011;9213;50.858;3.964;2023-01-10T10:03:00;19.10;;;3.67;;
18176;SDS011;9213;50.858;3.964;2023-01-10T10:05:31;18.20;;;4.60;;
18176;SDS011;9213;50.858;3.964;2023-01-10T10:07:59;17.23;;;4.17;;
18176;SDS011;9213;50.858;3.964;2023-01-10T10:10:30;17.13;;;3.63;;
18176;SDS011;9213;50.858;3.964;2023-01-10T10:13:06;17.47;;;3.90;;
18176;SDS011;9213;50.858;3.964;2023-01-10T10:15:45;15.87;;;3.77;;
18176;SDS011;9213;50.858;3.964;2023-01-10T10:18:20;17.47;;;3.93;;
18176;SDS011;9213;50.858;3.964;2023-01-10T10:20:57;20.97;;;4.13;;
18176;SDS011;9213;50.858;3.964;2023-01-10T10:23:34;21.87;;;4.20;;
18176;SDS011;9213;50.858;3.964;2023-01-10T10:26:15;17.60;;;3.57;;
18176;SDS011;9213;50.858;3.964;2023-01-10T10:29:01;20.73;;;4.50;;
18176;SDS011;9213;50.858;3.964;2023-01-10T10:34:38;21.83;;;3.90;;
18176;SDS011;9213;50.858;3.964;2023-01-10T10:37:09;20.10;;;3.60;;
18176;SDS011;9213;50.858;3.964;2023-01-10T10:39:40;20.33;;;3.80;;
18176;SDS011;9213;50.858;3.964;2023-01-10T10:42:11;22.30;;;3.93;;
18176;SDS011;9213;50.858;3.964;2023-01-10T10:44:42;14.47;;;3.67;;
18176;SDS011;9213;50.858;3.964;2023-01-10T10:47:13;19.80;;;4.07;;
18176;SDS011;9213;50.858;3.964;2023-01-10T10:49:44;14.87;;;3.57;;
18176;SDS011;9213;50.858;3.964;2023-01-10T10:52:18;17.47;;;3.47;;
18176;SDS011;9213;50.858;3.964;2023-01-10T10:54:48;14.37;;;3.93;;
18176;SDS011;9213;50.858;3.964;2023-01-10T10:57:16;21.87;;;4.13;;
18176;SDS011;9213;50.858;3.964;2023-01-10T10:59:45;13.67;;;3.80;;
18176;SDS011;9213;50.858;3.964;2023-01-10T11:02:23;15.83;;;4.17;;
18176;SDS011;9213;50.858;3.964;2023-01-10T11:04:54;15.17;;;4.57;;
18176;SDS011;9213;50.858;3.964;2023-01-10T11:07:23;19.07;;;4.20;;
18176;SDS011;9213;50.858;3.964;2023-01-10T11:09:52;15.73;;;3.73;;
18176;SDS011;9213;50.858;3.964;2023-01-10T11:12:32;19.00;;;3.97;;
18176;SDS011;9213;50.858;3.964;2023-01-10T11:15:00;14.20;;;3.63;;
18176;SDS011;9213;50.858;3.964;2023-01-10T11:17:28;23.50;;;4.23;;
18176;SDS011;9213;50.858;3.964;2023-01-10T11:19:58;17.20;;;4.33;;
18176;SDS011;9213;50.858;3.964;2023-01-10T11:22:27;23.10;;;4.60;;
18176;SDS011;9213;50.858;3.964;2023-01-10T11:25:05;14.37;;;4.00;;
18176;SDS011;9213;50.858;3.964;2023-01-10T11:27:44;19.50;;;3.60;;
18176;SDS011;9213;50.858;3.964;2023-01-10T11:30:16;20.73;;;3.47;;
18176;SDS011;9213;50.858;3.964;2023-01-10T11:32:47;17.17;;;3.90;;
18176;SDS011;9213;50.858;3.964;2023-01-10T11:35:20;15.50;;;4.40;;
18176;SDS011;9213;50.858;3.964;2023-01-10T11:38:02;20.40;;;3.90;;
18176;SDS011;9213;50.858;3.964;2023-01-10T11:40:30;24.13;;;3.97;;
18176;SDS011;9213;50.858;3.964;2023-01-10T11:42:58;15.80;;;3.90;;
18176;SDS011;9213;50.858;3.964;2023-01-10T11:45:26;17.33;;;3.97;;
18176;SDS011;9213;50.858;3.964;2023-01-10T11:47:59;18.83;;;4.13;;
18176;SDS011;9213;50.858;3.964;2023-01-10T11:50:35;15.97;;;3.37;;
18176;SDS011;9213;50.858;3.964;2023-01-10T11:53:03;26.37;;;3.83;;
18176;SDS011;9213;50.858;3.964;2023-01-10T11:55:33;14.37;;;3.77;;
18176;SDS011;9213;50.858;3.964;2023-01-10T11:58:02;16.03;;;3.97;;
18176;SDS011;9213;50.858;3.964;2023-01-10T12:00:34;11.73;;;3.47;;
18176;SDS011;9213;50.858;3.964;2023-01-10T12:03:13;12.90;;;3.30;;
18176;SDS011;9213;50.858;3.964;2023-01-10T12:05:53;16.80;;;3.43;;
18176;SDS011;9213;50.858;3.964;2023-01-10T12:08:27;18.30;;;3.70;;
18176;SDS011;9213;50.858;3.964;2023-01-10T12:10:59;14.63;;;2.97;;
18176;SDS011;9213;50.858;3.964;2023-01-10T12:13:29;17.73;;;3.77;;
18176;SDS011;9213;50.858;3.964;2023-01-10T12:16:16;15.87;;;3.83;;
18176;SDS011;9213;50.858;3.964;2023-01-10T12:18:46;15.77;;;2.90;;
18176;SDS011;9213;50.858;3.964;2023-01-10T12:21:15;19.30;;;3.70;;
18176;SDS011;9213;50.858;3.964;2023-01-10T12:23:45;16.33;;;3.63;;
18176;SDS011;9213;50.858;3.964;2023-01-10T12:26:15;14.53;;;3.63;;
18176;SDS011;9213;50.858;3.964;2023-01-10T12:28:44;12.23;;;3.20;;
18176;SDS011;9213;50.858;3.964;2023-01-10T12:31:15;15.83;;;3.50;;
18176;SDS011;9213;50.858;3.964;2023-01-10T12:33:50;13.37;;;4.17;;
18176;SDS011;9213;50.858;3.964;2023-01-10T12:36:27;16.47;;;3.50;;
18176;SDS011;9213;50.858;3.964;2023-01-10T12:39:02;10.80;;;3.20;;
18176;SDS011;9213;50.858;3.964;2023-01-10T12:41:42;14.50;;;3.93;;
18176;SDS011;9213;50.858;3.964;2023-01-10T12:44:38;15.20;;;3.83;;
18176;SDS011;9213;50.858;3.964;2023-01-10T12:47:09;10.83;;;3.43;;
18176;SDS011;9213;50.858;3.964;2023-01-10T12:49:45;15.80;;;3.27;;
18176;SDS011;9213;50.858;3.964;2023-01-10T12:52:19;12.73;;;3.50;;
18176;SDS011;9213;50.858;3.964;2023-01-10T12:54:53;12.60;;;3.33;;
18176;SDS011;9213;50.858;3.964;2023-01-10T12:57:24;11.67;;;2.83;;
18176;SDS011;9213;50.858;3.964;2023-01-10T12:59:55;13.67;;;3.93;;
18176;SDS011;9213;50.858;3.964;2023-01-10T13:02:27;16.43;;;3.50;;
18176;SDS011;9213;50.858;3.964;2023-01-10T13:04:59;13.13;;;2.73;;
18176;SDS011;9213;50.858;3.964;2023-01-10T13:07:32;13.60;;;3.17;;
18176;SDS011;9213;50.858;3.964;2023-01-10T13:10:01;15.63;;;3.47;;
18176;SDS011;9213;50.858;3.964;2023-01-10T13:12:31;11.30;;;3.00;;
18176;SDS011;9213;50.858;3.964;2023-01-10T13:15:03;13.90;;;3.30;;
18176;SDS011;9213;50.858;3.964;2023-01-10T13:17:36;21.83;;;3.10;;
18176;SDS011;9213;50.858;3.964;2023-01-10T13:20:17;9.20;;;2.83;;
18176;SDS011;9213;50.858;3.964;2023-01-10T13:22:55;12.80;;;2.83;;
18176;SDS011;9213;50.858;3.964;2023-01-10T13:25:23;11.87;;;3.03;;
18176;SDS011;9213;50.858;3.964;2023-01-10T13:27:54;19.57;;;4.27;;
18176;SDS011;9213;50.858;3.964;2023-01-10T13:30:24;12.23;;;3.07;;
18176;SDS011;9213;50.858;3.964;2023-01-10T13:32:55;12.07;;;3.67;;
18176;SDS011;9213;50.858;3.964;2023-01-10T13:35:26;17.20;;;3.63;;
18176;SDS011;9213;50.858;3.964;2023-01-10T13:38:02;14.10;;;3.87;;
18176;SDS011;9213;50.858;3.964;2023-01-10T13:40:30;8.43;;;3.10;;
18176;SDS011;9213;50.858;3.964;2023-01-10T13:49:22;12.13;;;2.50;;
18176;SDS011;9213;50.858;3.964;2023-01-10T13:54:56;12.63;;;3.10;;
18176;SDS011;9213;50.858;3.964;2023-01-10T14:00:20;14.30;;;3.37;;
18176;SDS011;9213;50.858;3.964;2023-01-10T14:03:36;12.07;;;3.57;;
18176;SDS011;9213;50.858;3.964;2023-01-10T14:06:05;11.70;;;3.40;;
18176;SDS011;9213;50.858;3.964;2023-01-10T14:08:38;11.87;;;3.53;;
18176;SDS011;9213;50.858;3.964;2023-01-10T14:11:07;11.57;;;3.20;;
18176;SDS011;9213;50.858;3.964;2023-01-10T14:13:37;12.67;;;2.93;;
18176;SDS011;9213;50.858;3.964;2023-01-10T14:16:25;12.03;;;3.87;;
18176;SDS011;9213;50.858;3.964;2023-01-10T14:18:53;11.10;;;3.40;;
18176;SDS011;9213;50.858;3.964;2023-01-10T14:21:22;9.97;;;2.73;;
18176;SDS011;9213;50.858;3.964;2023-01-10T14:23:51;8.50;;;3.20;;
18176;SDS011;9213;50.858;3.964;2023-01-10T14:26:22;7.03;;;3.07;;
18176;SDS011;9213;50.858;3.964;2023-01-10T14:28:54;8.00;;;2.70;;
18176;SDS011;9213;50.858;3.964;2023-01-10T14:31:22;11.53;;;3.03;;
18176;SDS011;9213;50.858;3.964;2023-01-10T14:33:50;9.33;;;2.77;;
18176;SDS011;9213;50.858;3.964;2023-01-10T14:36:23;7.70;;;2.90;;
18176;SDS011;9213;50.858;3.964;2023-01-10T14:38:54;10.97;;;2.97;;
18176;SDS011;9213;50.858;3.964;2023-01-10T14:41:33;8.97;;;2.40;;
18176;SDS011;9213;50.858;3.964;2023-01-10T14:44:05;12.57;;;3.13;;
18176;SDS011;9213;50.858;3.964;2023-01-10T14:46:37;9.17;;;2.63;;
18176;SDS011;9213;50.858;3.964;2023-01-10T14:49:20;6.93;;;2.40;;
18176;SDS011;9213;50.858;3.964;2023-01-10T14:51:49;8.67;;;3.03;;
18176;SDS011;9213;50.858;3.964;2023-01-10T14:54:17;4.13;;;2.43;;
18176;SDS011;9213;50.858;3.964;2023-01-10T14:56:48;5.67;;;2.47;;
18176;SDS011;9213;50.858;3.964;2023-01-10T14:59:17;3.47;;;2.27;;
18176;SDS011;9213;50.858;3.964;2023-01-10T15:01:48;6.13;;;2.20;;
18176;SDS011;9213;50.858;3.964;2023-01-10T15:04:17;5.03;;;2.30;;
18176;SDS011;9213;50.858;3.964;2023-01-10T15:06:50;5.00;;;2.30;;
18176;SDS011;9213;50.858;3.964;2023-01-10T15:09:18;5.10;;;2.10;;
18176;SDS011;9213;50.858;3.964;2023-01-10T15:11:47;4.70;;;2.20;;
18176;SDS011;9213;50.858;3.964;2023-01-10T15:14:15;4.27;;;2.20;;
18176;SDS011;9213;50.858;3.964;2023-01-10T15:16:44;2.97;;;2.00;;
18176;SDS011;9213;50.858;3.964;2023-01-10T15:19:14;3.20;;;2.30;;
18176;SDS011;9213;50.858;3.964;2023-01-10T15:21:43;3.80;;;1.87;;
18176;SDS011;9213;50.858;3.964;2023-01-10T15:24:31;5.70;;;2.20;;
18176;SDS011;9213;50.858;3.964;2023-01-10T15:27:00;4.33;;;2.20;;
18176;SDS011;9213;50.858;3.964;2023-01-10T15:29:29;4.43;;;2.03;;
18176;SDS011;9213;50.858;3.964;2023-01-10T15:32:01;4.23;;;2.43;;